createdAt,value
2022-09-21T00:01:25.447Z,1.30
2022-09-21T00:04:00.578Z,1.20
2022-09-21T00:06:30.119Z,1.40
2022-09-21T00:08:57.355Z,1.30
2022-09-21T00:11:30.089Z,1.40
2022-09-21T00:14:00.818Z,1.17
2022-09-21T00:16:29.163Z,1.50
2022-09-21T00:18:56.419Z,1.10
2022-09-21T00:21:24.445Z,1.20
2022-09-21T00:23:51.651Z,1.13
2022-09-21T00:26:21.164Z,1.50
2022-09-21T00:28:54.605Z,1.77
2022-09-21T00:31:23.989Z,1.48
2022-09-21T00:33:52.007Z,1.50
2022-09-21T00:36:22.244Z,1.55
2022-09-21T00:38:51.528Z,1.83
2022-09-21T00:41:18.936Z,1.38
2022-09-21T00:44:07.819Z,1.80
2022-09-21T00:46:37.452Z,1.48
2022-09-21T00:49:04.695Z,1.80
2022-09-21T00:51:31.955Z,1.33
2022-09-21T00:54:05.275Z,1.80
2022-09-21T00:56:32.788Z,1.30
2022-09-21T00:59:00.102Z,1.55
2022-09-21T01:01:27.338Z,1.20
2022-09-21T01:03:57.296Z,1.40
2022-09-21T01:06:25.450Z,1.55
2022-09-21T01:08:55.612Z,2.08
2022-09-21T01:11:46.796Z,1.48
2022-09-21T01:14:19.725Z,1.70
2022-09-21T01:17:03.445Z,1.42
2022-09-21T01:19:47.041Z,1.83
2022-09-21T01:22:27.469Z,1.60
2022-09-21T01:25:05.627Z,1.52
2022-09-21T01:28:06.865Z,1.80
2022-09-21T01:30:36.239Z,1.40
2022-09-21T01:33:13.891Z,1.77
2022-09-21T01:35:47.860Z,1.90
2022-09-21T01:38:22.895Z,1.83
2022-09-21T01:40:59.346Z,1.60
2022-09-21T01:43:32.448Z,1.55
2022-09-21T01:46:02.192Z,1.83
2022-09-21T01:48:35.186Z,1.83
2022-09-21T01:51:07.377Z,1.80
2022-09-21T01:53:41.621Z,2.05
2022-09-21T01:56:30.351Z,1.85
2022-09-21T01:59:03.255Z,1.83
2022-09-21T02:01:35.624Z,1.67
2022-09-21T02:04:09.230Z,1.45
2022-09-21T02:06:41.357Z,1.65
2022-09-21T02:09:10.551Z,1.83
2022-09-21T02:11:38.904Z,1.40
2022-09-21T02:14:10.244Z,1.83
2022-09-21T02:16:56.385Z,1.73
2022-09-21T02:19:37.337Z,1.75
2022-09-21T02:22:29.377Z,2.05
2022-09-21T02:25:06.127Z,1.83
2022-09-21T02:27:50.592Z,1.60
2022-09-21T02:30:25.040Z,2.05
2022-09-21T02:33:07.235Z,2.00
2022-09-21T02:35:47.067Z,1.73
2022-09-21T02:38:22.788Z,2.22
2022-09-21T02:41:02.148Z,1.90
2022-09-21T02:44:04.104Z,1.60
2022-09-21T02:46:37.927Z,1.70
2022-09-21T02:49:10.995Z,1.67
2022-09-21T02:51:47.299Z,2.08
2022-09-21T02:54:17.863Z,2.00
2022-09-21T02:56:46.689Z,2.15
2022-09-21T02:59:15.531Z,1.80
2022-09-21T03:01:43.470Z,2.05
2022-09-21T03:04:11.158Z,2.13
2022-09-21T03:06:38.745Z,2.25
2022-09-21T03:09:05.953Z,1.98
2022-09-21T03:11:34.128Z,1.85
2022-09-21T03:14:02.366Z,1.63
2022-09-21T03:16:29.563Z,1.70
2022-09-21T03:18:56.812Z,2.17
2022-09-21T03:21:23.997Z,1.83
2022-09-21T03:23:51.226Z,1.48
2022-09-21T03:26:22.212Z,1.88
2022-09-21T03:28:50.632Z,1.40
2022-09-21T03:31:17.892Z,1.30
2022-09-21T03:33:45.151Z,0.98
2022-09-21T03:36:12.683Z,0.85
2022-09-21T03:38:39.903Z,0.80
2022-09-21T03:41:07.168Z,1.05
2022-09-21T03:43:34.490Z,0.65
2022-09-21T03:46:01.721Z,1.85
2022-09-21T03:48:29.036Z,1.02
2022-09-21T03:50:57.129Z,1.20
2022-09-21T03:53:24.296Z,0.90
2022-09-21T03:55:51.491Z,0.75
2022-09-21T03:58:18.656Z,0.80
2022-09-21T04:00:46.315Z,0.70
2022-09-21T04:03:13.578Z,0.73
2022-09-21T04:05:40.771Z,0.68
2022-09-21T04:08:09.296Z,0.80
2022-09-21T04:10:37.052Z,0.73
2022-09-21T04:13:04.816Z,0.75
2022-09-21T04:15:32.137Z,0.70
2022-09-21T04:17:59.453Z,1.00
2022-09-21T04:20:26.773Z,0.70
2022-09-21T04:22:53.988Z,0.95
2022-09-21T04:25:21.175Z,1.17
2022-09-21T04:27:48.360Z,1.10
2022-09-21T04:30:16.645Z,1.10
2022-09-21T04:32:44.319Z,1.42
2022-09-21T04:35:11.576Z,1.13
2022-09-21T04:37:38.798Z,1.27
2022-09-21T04:40:08.331Z,1.10
2022-09-21T04:42:36.183Z,1.00
2022-09-21T04:45:04.504Z,1.50
2022-09-21T04:47:31.739Z,1.85
2022-09-21T04:49:58.916Z,1.10
2022-09-21T04:52:26.243Z,1.38
2022-09-21T04:54:53.515Z,1.35
2022-09-21T04:57:20.805Z,1.63
2022-09-21T04:59:48.081Z,1.40
2022-09-21T05:02:15.351Z,3.45
2022-09-21T05:04:42.718Z,2.50
2022-09-21T05:07:10.586Z,1.67
2022-09-21T05:09:56.028Z,1.52
2022-09-21T05:12:23.259Z,2.13
2022-09-21T05:14:50.468Z,2.03
2022-09-21T05:17:17.751Z,2.22
2022-09-21T05:19:45.001Z,2.42
2022-09-21T05:22:12.158Z,2.20
2022-09-21T05:24:39.323Z,2.40
2022-09-21T05:27:06.549Z,2.70
2022-09-21T05:29:34.269Z,2.25
2022-09-21T05:32:06.280Z,2.63
2022-09-21T05:34:51.919Z,1.90
2022-09-21T05:37:32.187Z,2.05
2022-09-21T05:39:59.684Z,2.38
2022-09-21T05:42:27.211Z,2.00
2022-09-21T05:44:55.345Z,2.00
2022-09-21T05:47:28.489Z,1.98
2022-09-21T05:50:20.321Z,1.95
2022-09-21T05:52:53.338Z,2.28
2022-09-21T05:55:35.664Z,2.10
2022-09-21T05:58:16.400Z,1.90
2022-09-21T06:01:10.944Z,2.60
2022-09-21T06:03:40.876Z,2.30
2022-09-21T06:06:09.655Z,2.97
2022-09-21T06:08:36.832Z,1.85
2022-09-21T06:11:04.160Z,2.53
2022-09-21T06:13:31.453Z,2.38
2022-09-21T06:16:02.628Z,2.22
2022-09-21T06:18:29.871Z,2.00
2022-09-21T06:20:57.089Z,1.85
2022-09-21T06:23:24.321Z,1.80
2022-09-21T06:25:58.229Z,2.10
2022-09-21T06:28:25.903Z,2.10
2022-09-21T06:30:55.194Z,2.60
2022-09-21T06:33:23.658Z,1.73
2022-09-21T06:35:58.725Z,2.05
2022-09-21T06:38:28.040Z,1.83
2022-09-21T06:40:55.910Z,2.05
2022-09-21T06:43:23.155Z,1.75
2022-09-21T06:46:00.280Z,1.85
2022-09-21T06:48:29.461Z,1.52
2022-09-21T06:51:00.699Z,1.55
2022-09-21T06:53:29.693Z,1.67
2022-09-21T06:56:09.566Z,2.40
2022-09-21T06:58:38.233Z,1.60
2022-09-21T07:01:08.075Z,1.52
2022-09-21T07:03:35.500Z,1.73
2022-09-21T07:06:02.990Z,1.52
2022-09-21T07:11:17.335Z,1.67
2022-09-21T07:13:45.477Z,1.48
2022-09-21T07:16:13.426Z,1.25
2022-09-21T07:18:44.452Z,1.02
2022-09-21T07:21:12.121Z,1.25
2022-09-21T07:23:39.333Z,1.13
2022-09-21T07:26:12.588Z,1.10
2022-09-21T07:28:40.181Z,1.30
2022-09-21T07:31:14.089Z,0.85
2022-09-21T07:33:42.458Z,0.90
2022-09-21T07:36:10.721Z,0.88
2022-09-21T07:38:39.771Z,1.70
2022-09-21T07:41:08.356Z,1.02
2022-09-21T07:43:36.843Z,0.82
2022-09-21T07:46:04.316Z,0.80
2022-09-21T07:48:34.831Z,1.13
2022-09-21T07:51:06.410Z,1.15
2022-09-21T07:53:34.793Z,1.40
2022-09-21T07:56:04.381Z,1.08
2022-09-21T07:58:50.273Z,1.55
2022-09-21T08:01:17.970Z,1.65
2022-09-21T08:03:45.318Z,1.77
2022-09-21T08:06:12.503Z,1.63
2022-09-21T08:08:41.640Z,1.35
2022-09-21T08:11:09.155Z,1.00
2022-09-21T08:13:36.336Z,1.15
2022-09-21T08:16:03.872Z,1.20
2022-09-21T08:18:31.178Z,0.90
2022-09-21T08:21:00.383Z,0.98
2022-09-21T08:23:30.664Z,0.73
2022-09-21T08:26:00.494Z,1.00
2022-09-21T08:28:28.587Z,0.90
2022-09-21T08:30:59.830Z,1.00
2022-09-21T08:33:29.529Z,0.82
2022-09-21T08:35:59.535Z,1.30
2022-09-21T08:38:27.780Z,1.30
2022-09-21T08:40:55.246Z,1.08
2022-09-21T08:43:36.388Z,1.10
2022-09-21T08:46:07.500Z,0.88
2022-09-21T08:48:41.485Z,0.90
2022-09-21T08:51:17.091Z,0.85
2022-09-21T08:53:46.744Z,0.80
2022-09-21T08:56:15.600Z,0.85
2022-09-21T08:59:16.038Z,0.88
2022-09-21T09:10:52.123Z,2.25
2022-09-21T09:14:02.162Z,1.02
2022-09-21T09:17:03.256Z,1.73
2022-09-21T09:19:36.207Z,1.27
2022-09-21T09:22:07.702Z,1.10
2022-09-21T09:24:40.642Z,1.13
2022-09-21T09:27:16.851Z,1.90
2022-09-21T09:30:04.062Z,1.13
2022-09-21T09:32:52.416Z,0.93
2022-09-21T09:35:24.707Z,0.90
2022-09-21T09:37:55.517Z,1.45
2022-09-21T09:41:04.097Z,1.00
2022-09-21T09:43:59.892Z,1.20
2022-09-21T09:46:38.349Z,1.00
2022-09-21T09:49:19.913Z,1.25
2022-09-21T09:51:49.479Z,1.08
2022-09-21T09:54:18.972Z,1.40
2022-09-21T09:56:46.213Z,0.90
2022-09-21T09:59:26.255Z,1.23
2022-09-21T10:02:22.627Z,1.10
2022-09-21T10:05:06.694Z,1.00
2022-09-21T10:07:47.668Z,1.17
2022-09-21T10:10:33.210Z,1.20
2022-09-21T10:13:03.096Z,1.17
2022-09-21T10:15:30.336Z,1.02
2022-09-21T10:18:15.680Z,1.10
2022-09-21T10:20:58.152Z,1.20
2022-09-21T10:23:27.310Z,0.80
2022-09-21T10:26:08.386Z,0.80
2022-09-21T10:28:35.991Z,0.77
2022-09-21T10:31:18.080Z,1.10
2022-09-21T10:34:14.988Z,0.85
2022-09-21T10:36:54.659Z,0.95
2022-09-21T10:39:29.873Z,1.10
2022-09-21T10:41:58.787Z,0.95
2022-09-21T10:44:41.520Z,0.95
2022-09-21T10:47:32.553Z,1.37
2022-09-21T10:50:03.795Z,0.50
2022-09-21T10:52:41.828Z,0.65
2022-09-21T10:55:22.391Z,0.80
2022-09-21T10:57:52.604Z,1.20
2022-09-21T11:00:25.861Z,2.58
2022-09-21T11:05:38.687Z,0.80
2022-09-21T11:08:14.605Z,0.75
2022-09-21T11:10:50.006Z,1.88
2022-09-21T11:13:33.189Z,0.77
2022-09-21T11:20:03.227Z,0.82
2022-09-21T11:22:54.272Z,0.80
2022-09-21T11:25:32.363Z,1.10
2022-09-21T11:28:13.315Z,0.60
2022-09-21T11:31:15.700Z,0.60
2022-09-21T11:33:43.139Z,1.20
2022-09-21T11:36:33.466Z,0.93
2022-09-21T11:39:23.723Z,0.80
2022-09-21T11:42:04.928Z,0.73
2022-09-21T11:44:38.246Z,1.00
2022-09-21T11:47:43.208Z,0.82
2022-09-21T11:50:38.477Z,0.90
2022-09-21T11:53:18.145Z,0.77
2022-09-21T11:56:23.898Z,0.70
2022-09-21T11:59:04.187Z,0.65
2022-09-21T12:02:03.417Z,0.60
2022-09-21T12:04:35.837Z,1.25
2022-09-21T12:07:27.631Z,1.50
2022-09-21T12:10:13.460Z,1.25
2022-09-21T12:12:57.610Z,0.70
2022-09-21T12:15:41.369Z,0.85
2022-09-21T12:18:21.442Z,0.55
2022-09-21T12:20:59.400Z,0.60
2022-09-21T12:23:50.804Z,1.10
2022-09-21T12:26:24.020Z,0.70
2022-09-21T12:29:00.798Z,0.40
2022-09-21T12:31:43.497Z,0.73
2022-09-21T12:34:21.543Z,0.93
2022-09-21T12:36:57.807Z,0.73
2022-09-21T12:39:50.425Z,0.60
2022-09-21T12:42:30.273Z,0.40
2022-09-21T12:45:19.815Z,0.55
2022-09-21T12:48:02.763Z,0.60
2022-09-21T12:50:39.615Z,0.70
2022-09-21T12:53:10.866Z,0.70
2022-09-21T12:55:45.496Z,0.40
2022-09-21T12:58:39.966Z,0.50
2022-09-21T13:01:33.272Z,0.60
2022-09-21T13:04:18.550Z,0.60
2022-09-21T13:06:57.789Z,0.80
2022-09-21T13:09:26.234Z,0.70
2022-09-21T13:11:59.118Z,0.47
2022-09-21T13:14:34.738Z,0.40
2022-09-21T13:17:05.699Z,0.52
2022-09-21T13:19:35.761Z,0.68
2022-09-21T13:22:21.248Z,0.60
2022-09-21T13:25:01.379Z,1.23
2022-09-21T13:28:03.972Z,0.50
2022-09-21T13:30:37.776Z,0.40
2022-09-21T13:33:25.362Z,0.45
2022-09-21T13:36:04.440Z,0.43
2022-09-21T13:38:41.183Z,0.70
2022-09-21T13:41:17.650Z,0.50
2022-09-21T13:44:01.096Z,0.60
2022-09-21T13:46:37.475Z,0.40
2022-09-21T13:49:31.260Z,1.52
2022-09-21T13:52:13.743Z,0.32
2022-09-21T13:54:55.469Z,0.65
2022-09-21T13:57:36.939Z,0.77
2022-09-21T14:00:13.132Z,0.50
2022-09-21T14:03:04.368Z,0.60
2022-09-21T14:05:39.797Z,0.50
2022-09-21T14:08:16.091Z,0.40
2022-09-21T14:10:58.127Z,0.43
2022-09-21T14:13:25.276Z,0.52
2022-09-21T14:15:52.578Z,0.43
2022-09-21T14:18:34.856Z,0.60
2022-09-21T14:21:10.664Z,0.77
2022-09-21T14:23:39.206Z,0.40
2022-09-21T14:26:34.862Z,0.60
2022-09-21T14:29:30.915Z,0.70
2022-09-21T14:32:02.965Z,0.52
2022-09-21T14:34:37.007Z,0.90
2022-09-21T14:37:32.618Z,0.70
2022-09-21T14:40:15.442Z,0.68
2022-09-21T14:42:43.747Z,0.40
2022-09-21T14:45:19.466Z,0.55
2022-09-21T14:48:04.542Z,0.40
2022-09-21T14:50:57.399Z,0.35
2022-09-21T14:53:28.206Z,0.40
2022-09-21T14:56:24.667Z,0.40
2022-09-21T14:59:25.874Z,0.50
2022-09-21T15:02:03.429Z,0.43
2022-09-21T15:05:09.075Z,0.50
2022-09-21T15:08:52.743Z,0.70
2022-09-21T15:11:37.908Z,0.47
2022-09-21T15:14:27.216Z,0.45
2022-09-21T15:16:54.505Z,0.45
2022-09-21T15:19:30.037Z,0.52
2022-09-21T15:22:10.512Z,0.40
2022-09-21T15:24:37.728Z,0.60
2022-09-21T15:27:16.117Z,0.40
2022-09-21T15:29:53.124Z,0.47
2022-09-21T15:32:40.505Z,0.50
2022-09-21T15:35:17.130Z,0.50
2022-09-21T15:37:45.842Z,0.65
2022-09-21T15:40:26.834Z,0.70
2022-09-21T15:43:00.965Z,0.60
2022-09-21T15:45:51.712Z,0.80
2022-09-21T15:48:20.715Z,0.60
2022-09-21T15:50:53.631Z,0.40
2022-09-21T15:53:33.693Z,0.60
2022-09-21T15:56:01.577Z,0.50
2022-09-21T15:58:38.526Z,0.50
2022-09-21T16:01:16.075Z,0.60
2022-09-21T16:03:43.632Z,0.70
2022-09-21T16:06:24.202Z,0.70
2022-09-21T16:08:51.646Z,0.95
2022-09-21T16:11:23.243Z,0.70
2022-09-21T16:14:28.144Z,0.73
2022-09-21T16:17:13.686Z,0.55
2022-09-21T16:19:53.895Z,0.60
2022-09-21T16:22:25.756Z,1.70
2022-09-21T16:24:55.606Z,0.57
2022-09-21T16:27:28.751Z,0.60
2022-09-21T16:29:57.362Z,1.08
2022-09-21T16:32:31.927Z,0.80
2022-09-21T16:35:17.836Z,0.70
2022-09-21T16:37:45.102Z,0.95
2022-09-21T16:40:14.127Z,1.00
2022-09-21T16:42:46.051Z,0.90
2022-09-21T16:45:24.100Z,0.70
2022-09-21T16:47:54.077Z,0.47
2022-09-21T16:50:21.334Z,0.60
2022-09-21T16:52:51.508Z,0.50
2022-09-21T16:55:25.484Z,0.75
2022-09-21T16:57:55.915Z,0.70
2022-09-21T17:00:23.580Z,0.43
2022-09-21T17:02:50.953Z,1.02
2022-09-21T17:05:19.425Z,0.60
2022-09-21T17:07:53.539Z,0.40
2022-09-21T17:10:27.226Z,0.60
2022-09-21T17:12:55.547Z,0.70
2022-09-21T17:15:23.781Z,0.88
2022-09-21T17:17:51.392Z,0.63
2022-09-21T17:20:33.104Z,0.50
2022-09-21T17:23:01.984Z,1.92
2022-09-21T17:25:30.353Z,0.70
2022-09-21T17:28:00.650Z,0.50
2022-09-21T17:30:28.487Z,0.60
2022-09-21T17:32:56.034Z,0.60
2022-09-21T17:35:33.651Z,0.57
2022-09-21T17:38:00.889Z,0.70
2022-09-21T17:40:29.843Z,0.80
2022-09-21T17:43:11.950Z,0.60
2022-09-21T17:45:46.699Z,0.43
2022-09-21T17:48:19.896Z,0.60
2022-09-21T17:50:48.591Z,0.60
2022-09-21T17:53:34.620Z,0.50
2022-09-21T17:56:25.571Z,0.70
2022-09-21T17:59:02.560Z,0.60
2022-09-21T18:01:36.238Z,0.70
2022-09-21T18:04:04.658Z,0.50
2022-09-21T18:06:32.590Z,1.00
2022-09-21T18:09:01.572Z,0.88
2022-09-21T18:11:44.124Z,0.77
2022-09-21T18:14:25.048Z,0.57
2022-09-21T18:17:21.162Z,0.43
2022-09-21T18:20:15.247Z,1.25
2022-09-21T18:22:55.137Z,0.65
2022-09-21T18:25:49.636Z,0.80
2022-09-21T18:28:34.807Z,0.60
2022-09-21T18:31:17.424Z,0.77
2022-09-21T18:33:59.983Z,0.98
2022-09-21T18:36:40.997Z,0.90
2022-09-21T18:39:34.643Z,0.65
2022-09-21T18:42:41.687Z,0.82
2022-09-21T18:45:41.632Z,0.80
2022-09-21T18:48:28.340Z,0.95
2022-09-21T18:51:10.600Z,1.00
2022-09-21T18:53:49.639Z,1.05
2022-09-21T18:56:17.107Z,0.98
2022-09-21T18:58:44.612Z,1.85
2022-09-21T19:01:12.976Z,0.68
2022-09-21T19:03:42.911Z,0.75
2022-09-21T19:06:27.389Z,1.00
2022-09-21T19:09:30.786Z,0.75
2022-09-21T19:12:06.671Z,0.88
2022-09-21T19:15:12.341Z,0.80
2022-09-21T19:18:12.391Z,0.85
2022-09-21T19:20:40.212Z,0.90
2022-09-21T19:23:28.943Z,0.70
2022-09-21T19:26:08.027Z,0.88
2022-09-21T19:28:50.313Z,0.75
2022-09-21T19:31:21.614Z,0.98
2022-09-21T19:33:50.758Z,1.02
2022-09-21T19:36:19.763Z,0.90
2022-09-21T19:38:47.306Z,1.05
2022-09-21T19:41:36.486Z,0.95
2022-09-21T19:44:36.030Z,1.00
2022-09-21T19:47:14.228Z,1.08
2022-09-21T19:49:54.608Z,1.20
2022-09-21T19:52:35.291Z,0.98
2022-09-21T19:55:22.779Z,0.93
2022-09-21T19:58:08.867Z,1.10
2022-09-21T20:00:37.435Z,1.38
2022-09-21T20:03:17.614Z,0.93
2022-09-21T20:06:13.191Z,0.80
2022-09-21T20:08:55.824Z,0.90
2022-09-21T20:11:34.916Z,1.15
2022-09-21T20:14:20.681Z,1.25
2022-09-21T20:16:48.022Z,1.10
2022-09-21T20:19:23.068Z,1.13
2022-09-21T20:21:58.779Z,1.10
2022-09-21T20:24:47.745Z,0.90
2022-09-21T20:27:30.267Z,0.93
2022-09-21T20:29:57.801Z,1.02
2022-09-21T20:32:25.049Z,1.10
2022-09-21T20:34:52.299Z,1.27
2022-09-21T20:37:20.258Z,1.13
2022-09-21T20:39:47.523Z,1.13
2022-09-21T20:42:23.823Z,1.05
2022-09-21T20:44:51.563Z,1.38
2022-09-21T20:47:20.231Z,1.30
2022-09-21T20:49:48.147Z,1.98
2022-09-21T20:52:17.310Z,2.53
2022-09-21T20:54:48.995Z,1.88
2022-09-21T20:57:18.322Z,2.22
2022-09-21T20:59:45.924Z,2.40
2022-09-21T21:02:14.181Z,2.40
2022-09-21T21:04:41.422Z,2.08
2022-09-21T21:07:08.729Z,2.63
2022-09-21T21:09:35.959Z,2.28
2022-09-21T21:12:03.240Z,2.45
2022-09-21T21:14:30.442Z,2.47
2022-09-21T21:16:57.673Z,1.42
2022-09-21T21:19:24.903Z,1.77
2022-09-21T21:21:52.098Z,1.50
2022-09-21T21:24:37.418Z,1.88
2022-09-21T21:27:04.833Z,1.42
2022-09-21T21:29:32.887Z,1.55
2022-09-21T21:32:00.540Z,1.70
2022-09-21T21:34:27.856Z,1.20
2022-09-21T21:36:55.981Z,2.13
2022-09-21T21:39:23.319Z,1.45
2022-09-21T21:41:50.562Z,1.40
2022-09-21T21:44:17.770Z,1.60
2022-09-21T21:46:45.032Z,1.95
2022-09-21T21:49:13.483Z,1.85
2022-09-21T21:51:40.676Z,1.63
2022-09-21T21:54:08.472Z,1.70
2022-09-21T21:56:35.716Z,1.85
2022-09-21T21:59:03.359Z,1.63
2022-09-21T22:01:31.129Z,1.67
2022-09-21T22:04:00.725Z,1.73
2022-09-21T22:06:29.615Z,1.73
2022-09-21T22:08:57.541Z,1.80
2022-09-21T22:11:26.274Z,2.00
2022-09-21T22:13:54.627Z,1.83
2022-09-21T22:16:23.419Z,1.85
2022-09-21T22:18:52.308Z,1.92
2022-09-21T22:21:24.064Z,1.77
2022-09-21T22:23:56.161Z,2.20
2022-09-21T22:26:24.552Z,1.98
2022-09-21T22:28:55.539Z,2.65
2022-09-21T22:31:28.565Z,2.10
2022-09-21T22:33:57.519Z,2.15
2022-09-21T22:36:27.327Z,2.05
2022-09-21T22:38:55.436Z,2.28
2022-09-21T22:41:26.405Z,2.20
2022-09-21T22:43:55.052Z,1.80
2022-09-21T22:46:24.103Z,1.67
2022-09-21T22:48:51.827Z,2.65
2022-09-21T22:51:20.191Z,1.85
2022-09-21T22:53:48.888Z,2.05
2022-09-21T22:56:22.284Z,2.53
2022-09-21T22:58:55.304Z,2.15
2022-09-21T23:01:28.287Z,2.22
2022-09-21T23:04:00.344Z,1.77
2022-09-21T23:06:31.790Z,1.83
2022-09-21T23:09:00.268Z,1.77
2022-09-21T23:11:32.903Z,1.27
2022-09-21T23:14:01.162Z,1.85
2022-09-21T23:16:29.952Z,1.73
2022-09-21T23:18:57.992Z,1.88
2022-09-21T23:21:28.066Z,1.63
2022-09-21T23:23:59.969Z,1.70
2022-09-21T23:26:30.552Z,1.98
2022-09-21T23:29:00.549Z,1.85
2022-09-21T23:31:29.380Z,1.80
2022-09-21T23:33:58.833Z,2.35
2022-09-21T23:36:28.442Z,1.63
2022-09-21T23:38:55.941Z,2.00
2022-09-21T23:41:28.706Z,1.48
2022-09-21T23:43:56.792Z,1.70
2022-09-21T23:46:26.967Z,1.80
2022-09-21T23:48:54.443Z,2.25
2022-09-21T23:51:22.346Z,2.03
2022-09-21T23:53:50.337Z,1.77
2022-09-21T23:56:21.425Z,1.90
2022-09-21T23:58:49.571Z,2.28
